sensor_id;sensor_type;location;lat;lon;timestamp;temperature;humidity
21037;DHT22;10677;50.942;4.028;2023-09-12T00:00:56;21.80;99.90
21037;DHT22;10677;50.942;4.028;2023-09-12T00:03:23;21.90;99.90
21037;DHT22;10677;50.942;4.028;2023-09-12T00:08:18;21.50;99.90
21037;DHT22;10677;50.942;4.028;2023-09-12T00:10:43;21.60;99.90
21037;DHT22;10677;50.942;4.028;2023-09-12T00:13:09;21.60;99.90
21037;DHT22;10677;50.942;4.028;2023-09-12T00:15:35;21.50;99.90
21037;DHT22;10677;50.942;4.028;2023-09-12T00:18:00;21.30;99.90
21037;DHT22;10677;50.942;4.028;2023-09-12T00:20:26;21.50;99.90
21037;DHT22;10677;50.942;4.028;2023-09-12T00:22:51;21.50;99.90
21037;DHT22;10677;50.942;4.028;2023-09-12T00:25:20;21.40;99.90
21037;DHT22;10677;50.942;4.028;2023-09-12T00:27:46;21.50;99.90
21037;DHT22;10677;50.942;4.028;2023-09-12T00:30:13;21.50;99.90
21037;DHT22;10677;50.942;4.028;2023-09-12T00:32:39;21.30;99.90
21037;DHT22;10677;50.942;4.028;2023-09-12T00:35:05;21.40;99.90
21037;DHT22;10677;50.942;4.028;2023-09-12T00:37:31;21.50;99.90
21037;DHT22;10677;50.942;4.028;2023-09-12T00:39:56;21.40;99.90
21037;DHT22;10677;50.942;4.028;2023-09-12T00:42:25;21.30;99.90
21037;DHT22;10677;50.942;4.028;2023-09-12T00:44:51;21.40;99.90
21037;DHT22;10677;50.942;4.028;2023-09-12T00:47:18;21.60;99.90
21037;DHT22;10677;50.942;4.028;2023-09-12T00:49:45;21.70;99.90
21037;DHT22;10677;50.942;4.028;2023-09-12T00:52:12;21.70;99.90
21037;DHT22;10677;50.942;4.028;2023-09-12T00:54:39;21.70;99.90
21037;DHT22;10677;50.942;4.028;2023-09-12T00:57:05;21.60;99.90
21037;DHT22;10677;50.942;4.028;2023-09-12T00:59:32;21.60;99.90
21037;DHT22;10677;50.942;4.028;2023-09-12T01:01:58;21.70;99.90
21037;DHT22;10677;50.942;4.028;2023-09-12T01:04:25;21.80;99.90
21037;DHT22;10677;50.942;4.028;2023-09-12T01:06:52;21.70;99.90
21037;DHT22;10677;50.942;4.028;2023-09-12T01:09:17;21.80;99.90
21037;DHT22;10677;50.942;4.028;2023-09-12T01:11:44;21.70;99.90
21037;DHT22;10677;50.942;4.028;2023-09-12T01:14:10;21.80;99.90
21037;DHT22;10677;50.942;4.028;2023-09-12T01:16:35;22.00;99.90
21037;DHT22;10677;50.942;4.028;2023-09-12T01:19:01;22.00;99.90
21037;DHT22;10677;50.942;4.028;2023-09-12T01:27:32;21.70;99.90
21037;DHT22;10677;50.942;4.028;2023-09-12T01:30:04;21.70;99.90
21037;DHT22;10677;50.942;4.028;2023-09-12T01:32:32;21.60;99.90
21037;DHT22;10677;50.942;4.028;2023-09-12T01:34:59;21.60;99.90
21037;DHT22;10677;50.942;4.028;2023-09-12T01:37:24;21.40;99.90
21037;DHT22;10677;50.942;4.028;2023-09-12T01:39:50;21.30;99.90
21037;DHT22;10677;50.942;4.028;2023-09-12T01:42:18;21.50;99.90
21037;DHT22;10677;50.942;4.028;2023-09-12T01:44:47;21.50;99.90
21037;DHT22;10677;50.942;4.028;2023-09-12T01:47:15;21.50;99.90
21037;DHT22;10677;50.942;4.028;2023-09-12T01:49:45;21.50;99.90
21037;DHT22;10677;50.942;4.028;2023-09-12T01:52:12;21.40;99.90
21037;DHT22;10677;50.942;4.028;2023-09-12T01:54:38;21.50;99.90
21037;DHT22;10677;50.942;4.028;2023-09-12T01:57:05;21.30;99.90
21037;DHT22;10677;50.942;4.028;2023-09-12T01:59:31;21.30;99.90
21037;DHT22;10677;50.942;4.028;2023-09-12T02:01:57;21.40;99.90
21037;DHT22;10677;50.942;4.028;2023-09-12T02:04:23;21.30;99.90
21037;DHT22;10677;50.942;4.028;2023-09-12T02:06:48;21.40;99.90
21037;DHT22;10677;50.942;4.028;2023-09-12T02:09:14;21.20;99.90
21037;DHT22;10677;50.942;4.028;2023-09-12T02:11:39;21.00;99.90
21037;DHT22;10677;50.942;4.028;2023-09-12T02:14:05;21.10;99.90
21037;DHT22;10677;50.942;4.028;2023-09-12T02:16:31;21.20;99.90
21037;DHT22;10677;50.942;4.028;2023-09-12T02:18:57;21.30;99.90
21037;DHT22;10677;50.942;4.028;2023-09-12T02:21:22;21.30;99.90
21037;DHT22;10677;50.942;4.028;2023-09-12T02:23:48;21.30;99.90
21037;DHT22;10677;50.942;4.028;2023-09-12T02:26:14;21.20;99.90
21037;DHT22;10677;50.942;4.028;2023-09-12T02:28:39;21.20;99.90
21037;DHT22;10677;50.942;4.028;2023-09-12T02:31:11;21.20;99.90
21037;DHT22;10677;50.942;4.028;2023-09-12T02:33:40;21.30;99.90
21037;DHT22;10677;50.942;4.028;2023-09-12T02:36:06;21.40;99.90
21037;DHT22;10677;50.942;4.028;2023-09-12T02:38:32;21.50;99.90
21037;DHT22;10677;50.942;4.028;2023-09-12T02:40:58;21.50;99.90
21037;DHT22;10677;50.942;4.028;2023-09-12T02:43:24;21.30;99.90
21037;DHT22;10677;50.942;4.028;2023-09-12T02:45:49;21.30;99.90
21037;DHT22;10677;50.942;4.028;2023-09-12T02:48:15;20.90;99.90
21037;DHT22;10677;50.942;4.028;2023-09-12T02:50:41;20.60;99.90
21037;DHT22;10677;50.942;4.028;2023-09-12T02:53:06;20.30;99.90
21037;DHT22;10677;50.942;4.028;2023-09-12T02:55:32;20.10;99.90
21037;DHT22;10677;50.942;4.028;2023-09-12T02:57:58;20.20;99.90
21037;DHT22;10677;50.942;4.028;2023-09-12T03:00:24;20.50;99.90
21037;DHT22;10677;50.942;4.028;2023-09-12T03:02:50;20.80;99.90
21037;DHT22;10677;50.942;4.028;2023-09-12T03:05:16;21.00;99.90
21037;DHT22;10677;50.942;4.028;2023-09-12T03:07:41;21.10;99.90
21037;DHT22;10677;50.942;4.028;2023-09-12T03:10:07;21.20;99.90
21037;DHT22;10677;50.942;4.028;2023-09-12T03:12:35;21.20;99.90
21037;DHT22;10677;50.942;4.028;2023-09-12T03:15:01;21.30;99.90
21037;DHT22;10677;50.942;4.028;2023-09-12T03:17:28;21.20;99.90
21037;DHT22;10677;50.942;4.028;2023-09-12T03:19:54;21.10;99.90
21037;DHT22;10677;50.942;4.028;2023-09-12T03:22:20;21.10;99.90
21037;DHT22;10677;50.942;4.028;2023-09-12T03:24:45;21.00;99.90
21037;DHT22;10677;50.942;4.028;2023-09-12T03:27:11;21.00;99.90
21037;DHT22;10677;50.942;4.028;2023-09-12T03:29:37;21.10;99.90
21037;DHT22;10677;50.942;4.028;2023-09-12T03:32:02;21.10;99.90
21037;DHT22;10677;50.942;4.028;2023-09-12T03:34:28;21.10;99.90
21037;DHT22;10677;50.942;4.028;2023-09-12T03:36:55;21.10;99.90
21037;DHT22;10677;50.942;4.028;2023-09-12T03:39:21;21.00;99.90
21037;DHT22;10677;50.942;4.028;2023-09-12T03:41:46;21.00;99.90
21037;DHT22;10677;50.942;4.028;2023-09-12T03:44:12;21.10;99.90
21037;DHT22;10677;50.942;4.028;2023-09-12T03:46:37;21.10;99.90
21037;DHT22;10677;50.942;4.028;2023-09-12T03:49:03;21.00;99.90
21037;DHT22;10677;50.942;4.028;2023-09-12T03:51:29;21.00;99.90
21037;DHT22;10677;50.942;4.028;2023-09-12T03:53:54;20.90;99.90
21037;DHT22;10677;50.942;4.028;2023-09-12T03:56:20;20.90;99.90
21037;DHT22;10677;50.942;4.028;2023-09-12T03:58:46;20.80;99.90
21037;DHT22;10677;50.942;4.028;2023-09-12T04:01:12;21.00;99.90
21037;DHT22;10677;50.942;4.028;2023-09-12T04:03:37;21.00;99.90
21037;DHT22;10677;50.942;4.028;2023-09-12T04:06:03;21.10;99.90
21037;DHT22;10677;50.942;4.028;2023-09-12T04:08:29;21.10;99.90
21037;DHT22;10677;50.942;4.028;2023-09-12T04:10:54;21.10;99.90
21037;DHT22;10677;50.942;4.028;2023-09-12T04:13:20;21.10;99.90
21037;DHT22;10677;50.942;4.028;2023-09-12T04:15:46;21.10;99.90
21037;DHT22;10677;50.942;4.028;2023-09-12T04:18:11;21.10;99.90
21037;DHT22;10677;50.942;4.028;2023-09-12T04:20:37;21.00;99.90
21037;DHT22;10677;50.942;4.028;2023-09-12T04:23:02;21.00;99.90
21037;DHT22;10677;50.942;4.028;2023-09-12T04:25:31;21.10;99.90
21037;DHT22;10677;50.942;4.028;2023-09-12T04:27:57;21.10;99.90
21037;DHT22;10677;50.942;4.028;2023-09-12T04:30:22;21.10;99.90
21037;DHT22;10677;50.942;4.028;2023-09-12T04:32:48;21.10;99.90
21037;DHT22;10677;50.942;4.028;2023-09-12T04:35:14;21.20;99.90
21037;DHT22;10677;50.942;4.028;2023-09-12T04:37:39;21.10;99.90
21037;DHT22;10677;50.942;4.028;2023-09-12T04:40:07;21.10;99.90
21037;DHT22;10677;50.942;4.028;2023-09-12T04:42:33;21.20;99.90
21037;DHT22;10677;50.942;4.028;2023-09-12T04:44:58;21.20;99.90
21037;DHT22;10677;50.942;4.028;2023-09-12T04:47:24;21.10;99.90
21037;DHT22;10677;50.942;4.028;2023-09-12T04:49:50;21.10;99.90
21037;DHT22;10677;50.942;4.028;2023-09-12T04:52:15;21.00;99.90
21037;DHT22;10677;50.942;4.028;2023-09-12T04:54:41;20.70;99.90
21037;DHT22;10677;50.942;4.028;2023-09-12T04:57:07;20.40;99.90
21037;DHT22;10677;50.942;4.028;2023-09-12T04:59:33;20.30;99.90
21037;DHT22;10677;50.942;4.028;2023-09-12T05:01:59;20.30;99.90
21037;DHT22;10677;50.942;4.028;2023-09-12T05:04:24;20.40;99.90
21037;DHT22;10677;50.942;4.028;2023-09-12T05:06:50;20.50;99.90
21037;DHT22;10677;50.942;4.028;2023-09-12T05:09:16;20.30;99.90
21037;DHT22;10677;50.942;4.028;2023-09-12T05:11:41;20.20;99.90
21037;DHT22;10677;50.942;4.028;2023-09-12T05:14:07;20.10;99.90
21037;DHT22;10677;50.942;4.028;2023-09-12T05:16:33;20.00;99.90
21037;DHT22;10677;50.942;4.028;2023-09-12T05:18:58;19.80;99.90
21037;DHT22;10677;50.942;4.028;2023-09-12T05:21:24;19.90;99.90
21037;DHT22;10677;50.942;4.028;2023-09-12T05:23:50;20.00;99.90
21037;DHT22;10677;50.942;4.028;2023-09-12T05:26:15;20.00;99.90
21037;DHT22;10677;50.942;4.028;2023-09-12T05:28:41;20.00;99.90
21037;DHT22;10677;50.942;4.028;2023-09-12T05:31:07;20.00;99.90
21037;DHT22;10677;50.942;4.028;2023-09-12T05:33:32;20.10;99.90
21037;DHT22;10677;50.942;4.028;2023-09-12T05:35:58;20.20;99.90
21037;DHT22;10677;50.942;4.028;2023-09-12T05:38:24;20.50;99.90
21037;DHT22;10677;50.942;4.028;2023-09-12T05:40:49;20.60;99.90
21037;DHT22;10677;50.942;4.028;2023-09-12T05:43:16;20.70;99.90
21037;DHT22;10677;50.942;4.028;2023-09-12T05:45:42;20.70;99.90
21037;DHT22;10677;50.942;4.028;2023-09-12T05:48:08;20.90;99.90
21037;DHT22;10677;50.942;4.028;2023-09-12T05:50:36;20.90;99.90
21037;DHT22;10677;50.942;4.028;2023-09-12T05:53:02;21.00;99.90
21037;DHT22;10677;50.942;4.028;2023-09-12T05:55:27;21.00;99.90
21037;DHT22;10677;50.942;4.028;2023-09-12T05:57:53;21.10;99.90
21037;DHT22;10677;50.942;4.028;2023-09-12T06:00:20;20.90;99.90
21037;DHT22;10677;50.942;4.028;2023-09-12T06:02:47;20.90;99.90
21037;DHT22;10677;50.942;4.028;2023-09-12T06:05:14;20.90;99.90
21037;DHT22;10677;50.942;4.028;2023-09-12T06:07:39;21.20;99.90
21037;DHT22;10677;50.942;4.028;2023-09-12T06:10:10;21.00;99.90
21037;DHT22;10677;50.942;4.028;2023-09-12T06:12:35;21.00;99.90
21037;DHT22;10677;50.942;4.028;2023-09-12T06:15:02;20.60;99.90
21037;DHT22;10677;50.942;4.028;2023-09-12T06:17:29;20.50;99.90
21037;DHT22;10677;50.942;4.028;2023-09-12T06:19:55;20.50;99.90
21037;DHT22;10677;50.942;4.028;2023-09-12T06:22:21;20.60;99.90
21037;DHT22;10677;50.942;4.028;2023-09-12T06:24:49;20.30;99.90
21037;DHT22;10677;50.942;4.028;2023-09-12T06:27:15;20.20;99.90
21037;DHT22;10677;50.942;4.028;2023-09-12T06:29:48;20.40;99.90
21037;DHT22;10677;50.942;4.028;2023-09-12T06:32:17;20.70;99.90
21037;DHT22;10677;50.942;4.028;2023-09-12T06:34:43;20.70;99.90
21037;DHT22;10677;50.942;4.028;2023-09-12T06:37:13;20.90;99.90
21037;DHT22;10677;50.942;4.028;2023-09-12T06:39:39;21.00;99.90
21037;DHT22;10677;50.942;4.028;2023-09-12T06:42:05;21.00;99.90
21037;DHT22;10677;50.942;4.028;2023-09-12T06:44:31;21.10;99.90
21037;DHT22;10677;50.942;4.028;2023-09-12T06:46:56;21.10;99.90
21037;DHT22;10677;50.942;4.028;2023-09-12T06:49:23;21.10;99.90
21037;DHT22;10677;50.942;4.028;2023-09-12T06:51:49;21.20;99.90
21037;DHT22;10677;50.942;4.028;2023-09-12T06:54:16;21.20;99.90
21037;DHT22;10677;50.942;4.028;2023-09-12T06:56:42;21.20;99.90
21037;DHT22;10677;50.942;4.028;2023-09-12T06:59:08;21.40;99.90
21037;DHT22;10677;50.942;4.028;2023-09-12T07:01:34;21.50;99.90
21037;DHT22;10677;50.942;4.028;2023-09-12T07:04:00;21.50;99.90
21037;DHT22;10677;50.942;4.028;2023-09-12T07:06:25;21.40;99.90
21037;DHT22;10677;50.942;4.028;2023-09-12T07:08:51;21.30;99.90
21037;DHT22;10677;50.942;4.028;2023-09-12T07:11:17;21.30;99.90
21037;DHT22;10677;50.942;4.028;2023-09-12T07:13:46;21.30;99.90
21037;DHT22;10677;50.942;4.028;2023-09-12T07:16:13;21.30;99.90
21037;DHT22;10677;50.942;4.028;2023-09-12T07:18:39;21.40;99.90
21037;DHT22;10677;50.942;4.028;2023-09-12T07:21:05;21.50;99.90
21037;DHT22;10677;50.942;4.028;2023-09-12T07:23:32;21.30;99.90
21037;DHT22;10677;50.942;4.028;2023-09-12T07:25:58;21.30;99.90
21037;DHT22;10677;50.942;4.028;2023-09-12T07:28:25;21.30;99.90
21037;DHT22;10677;50.942;4.028;2023-09-12T07:30:51;21.40;99.90
21037;DHT22;10677;50.942;4.028;2023-09-12T07:33:17;21.40;99.90
21037;DHT22;10677;50.942;4.028;2023-09-12T07:35:43;21.40;99.90
21037;DHT22;10677;50.942;4.028;2023-09-12T07:38:08;21.30;99.90
21037;DHT22;10677;50.942;4.028;2023-09-12T07:40:36;21.30;99.90
21037;DHT22;10677;50.942;4.028;2023-09-12T07:43:02;21.10;99.90
21037;DHT22;10677;50.942;4.028;2023-09-12T07:45:29;21.10;99.90
21037;DHT22;10677;50.942;4.028;2023-09-12T07:47:58;21.20;99.90
21037;DHT22;10677;50.942;4.028;2023-09-12T07:50:25;21.20;99.90
21037;DHT22;10677;50.942;4.028;2023-09-12T07:52:52;21.30;99.90
21037;DHT22;10677;50.942;4.028;2023-09-12T07:55:18;21.50;99.90
21037;DHT22;10677;50.942;4.028;2023-09-12T07:57:44;21.60;99.90
21037;DHT22;10677;50.942;4.028;2023-09-12T08:00:11;21.60;99.90
21037;DHT22;10677;50.942;4.028;2023-09-12T08:02:36;21.50;99.90
21037;DHT22;10677;50.942;4.028;2023-09-12T08:05:05;21.50;99.90
21037;DHT22;10677;50.942;4.028;2023-09-12T08:07:32;21.50;99.90
21037;DHT22;10677;50.942;4.028;2023-09-12T08:09:58;21.50;99.90
21037;DHT22;10677;50.942;4.028;2023-09-12T08:12:26;21.50;99.90
21037;DHT22;10677;50.942;4.028;2023-09-12T08:14:52;21.70;99.90
21037;DHT22;10677;50.942;4.028;2023-09-12T08:17:18;21.70;99.90
21037;DHT22;10677;50.942;4.028;2023-09-12T08:19:43;21.70;99.90
21037;DHT22;10677;50.942;4.028;2023-09-12T08:22:10;21.80;99.90
21037;DHT22;10677;50.942;4.028;2023-09-12T08:24:36;21.90;99.90
21037;DHT22;10677;50.942;4.028;2023-09-12T08:27:03;22.00;99.90
21037;DHT22;10677;50.942;4.028;2023-09-12T08:29:29;22.00;99.90
21037;DHT22;10677;50.942;4.028;2023-09-12T08:31:55;21.90;99.90
21037;DHT22;10677;50.942;4.028;2023-09-12T08:34:21;21.90;99.90
21037;DHT22;10677;50.942;4.028;2023-09-12T08:36:47;21.90;99.90
21037;DHT22;10677;50.942;4.028;2023-09-12T08:39:15;22.00;99.90
21037;DHT22;10677;50.942;4.028;2023-09-12T08:41:42;22.10;99.90
21037;DHT22;10677;50.942;4.028;2023-09-12T08:44:08;22.10;99.90
21037;DHT22;10677;50.942;4.028;2023-09-12T08:46:34;22.00;99.90
21037;DHT22;10677;50.942;4.028;2023-09-12T08:49:04;21.80;99.90
21037;DHT22;10677;50.942;4.028;2023-09-12T08:51:30;21.50;99.90
21037;DHT22;10677;50.942;4.028;2023-09-12T08:53:57;21.50;99.90
21037;DHT22;10677;50.942;4.028;2023-09-12T08:56:26;21.80;99.90
21037;DHT22;10677;50.942;4.028;2023-09-12T08:58:52;22.10;99.90
21037;DHT22;10677;50.942;4.028;2023-09-12T09:01:20;22.20;99.90
21037;DHT22;10677;50.942;4.028;2023-09-12T09:03:46;22.10;99.90
21037;DHT22;10677;50.942;4.028;2023-09-12T09:06:13;22.10;99.90
21037;DHT22;10677;50.942;4.028;2023-09-12T09:08:43;22.10;99.90
21037;DHT22;10677;50.942;4.028;2023-09-12T09:11:09;22.20;99.90
21037;DHT22;10677;50.942;4.028;2023-09-12T09:13:36;22.40;99.90
21037;DHT22;10677;50.942;4.028;2023-09-12T09:18:53;22.70;99.90
21037;DHT22;10677;50.942;4.028;2023-09-12T09:21:21;22.80;99.90
21037;DHT22;10677;50.942;4.028;2023-09-12T09:23:50;23.00;99.90
21037;DHT22;10677;50.942;4.028;2023-09-12T09:26:16;22.80;99.90
21037;DHT22;10677;50.942;4.028;2023-09-12T09:28:42;22.80;99.90
21037;DHT22;10677;50.942;4.028;2023-09-12T09:31:12;23.00;99.90
21037;DHT22;10677;50.942;4.028;2023-09-12T09:33:42;23.20;99.90
21037;DHT22;10677;50.942;4.028;2023-09-12T09:36:16;23.30;99.90
21037;DHT22;10677;50.942;4.028;2023-09-12T09:38:42;23.40;99.90
21037;DHT22;10677;50.942;4.028;2023-09-12T09:41:09;23.50;99.90
21037;DHT22;10677;50.942;4.028;2023-09-12T09:43:35;23.70;99.90
21037;DHT22;10677;50.942;4.028;2023-09-12T09:46:01;23.80;99.90
21037;DHT22;10677;50.942;4.028;2023-09-12T09:48:28;23.90;99.90
21037;DHT22;10677;50.942;4.028;2023-09-12T09:51:03;24.10;99.90
21037;DHT22;10677;50.942;4.028;2023-09-12T09:53:30;24.10;99.90
21037;DHT22;10677;50.942;4.028;2023-09-12T09:56:11;24.30;99.90
21037;DHT22;10677;50.942;4.028;2023-09-12T10:01:19;24.50;99.90
21037;DHT22;10677;50.942;4.028;2023-09-12T10:03:46;24.20;99.90
21037;DHT22;10677;50.942;4.028;2023-09-12T10:06:16;24.40;99.90
21037;DHT22;10677;50.942;4.028;2023-09-12T10:08:44;24.80;99.90
21037;DHT22;10677;50.942;4.028;2023-09-12T10:11:15;25.00;99.90
21037;DHT22;10677;50.942;4.028;2023-09-12T10:13:47;25.10;99.90
21037;DHT22;10677;50.942;4.028;2023-09-12T10:16:16;25.20;99.90
21037;DHT22;10677;50.942;4.028;2023-09-12T10:18:49;25.20;99.90
21037;DHT22;10677;50.942;4.028;2023-09-12T10:21:23;25.10;99.90
21037;DHT22;10677;50.942;4.028;2023-09-12T10:23:51;25.00;99.90
21037;DHT22;10677;50.942;4.028;2023-09-12T10:26:17;25.00;99.90
21037;DHT22;10677;50.942;4.028;2023-09-12T10:28:43;25.00;99.90
21037;DHT22;10677;50.942;4.028;2023-09-12T10:31:12;25.20;99.90
21037;DHT22;10677;50.942;4.028;2023-09-12T10:33:38;25.40;99.90
21037;DHT22;10677;50.942;4.028;2023-09-12T10:36:05;25.40;99.90
21037;DHT22;10677;50.942;4.028;2023-09-12T10:38:40;25.50;99.90
21037;DHT22;10677;50.942;4.028;2023-09-12T10:41:08;25.50;99.90
21037;DHT22;10677;50.942;4.028;2023-09-12T10:43:37;25.70;99.90
21037;DHT22;10677;50.942;4.028;2023-09-12T10:46:04;25.80;99.90
21037;DHT22;10677;50.942;4.028;2023-09-12T10:48:31;25.90;99.90
21037;DHT22;10677;50.942;4.028;2023-09-12T10:51:01;26.00;99.90
21037;DHT22;10677;50.942;4.028;2023-09-12T10:53:27;25.70;99.90
21037;DHT22;10677;50.942;4.028;2023-09-12T10:56:18;25.00;99.90
21037;DHT22;10677;50.942;4.028;2023-09-12T11:01:49;24.80;99.90
21037;DHT22;10677;50.942;4.028;2023-09-12T11:06:50;24.80;99.90
21037;DHT22;10677;50.942;4.028;2023-09-12T11:09:25;25.00;99.90
21037;DHT22;10677;50.942;4.028;2023-09-12T11:11:54;25.20;99.90
21037;DHT22;10677;50.942;4.028;2023-09-12T11:14:21;25.30;99.90
21037;DHT22;10677;50.942;4.028;2023-09-12T11:19:47;25.80;99.90
21037;DHT22;10677;50.942;4.028;2023-09-12T11:24:52;25.90;99.90
21037;DHT22;10677;50.942;4.028;2023-09-12T11:27:17;25.70;99.90
21037;DHT22;10677;50.942;4.028;2023-09-12T11:29:43;25.60;99.90
21037;DHT22;10677;50.942;4.028;2023-09-12T11:32:09;25.00;99.90
21037;DHT22;10677;50.942;4.028;2023-09-12T11:34:43;24.70;99.90
21037;DHT22;10677;50.942;4.028;2023-09-12T11:37:10;24.70;99.90
21037;DHT22;10677;50.942;4.028;2023-09-12T11:39:37;24.80;99.90
21037;DHT22;10677;50.942;4.028;2023-09-12T11:42:04;24.90;99.90
21037;DHT22;10677;50.942;4.028;2023-09-12T11:44:39;25.10;99.90
21037;DHT22;10677;50.942;4.028;2023-09-12T11:47:05;25.10;99.90
21037;DHT22;10677;50.942;4.028;2023-09-12T11:49:37;25.00;99.90
21037;DHT22;10677;50.942;4.028;2023-09-12T11:52:03;24.90;99.90
21037;DHT22;10677;50.942;4.028;2023-09-12T11:54:33;24.90;99.90
21037;DHT22;10677;50.942;4.028;2023-09-12T11:56:58;25.20;99.90
21037;DHT22;10677;50.942;4.028;2023-09-12T11:59:31;25.50;99.90
21037;DHT22;10677;50.942;4.028;2023-09-12T12:01:57;25.60;99.90
21037;DHT22;10677;50.942;4.028;2023-09-12T12:04:24;25.80;99.90
21037;DHT22;10677;50.942;4.028;2023-09-12T12:06:53;25.70;99.90
21037;DHT22;10677;50.942;4.028;2023-09-12T12:09:19;25.70;99.90
21037;DHT22;10677;50.942;4.028;2023-09-12T12:11:46;25.90;99.90
21037;DHT22;10677;50.942;4.028;2023-09-12T12:14:16;26.40;99.90
21037;DHT22;10677;50.942;4.028;2023-09-12T12:16:43;26.80;99.90
21037;DHT22;10677;50.942;4.028;2023-09-12T12:19:18;26.90;99.90
21037;DHT22;10677;50.942;4.028;2023-09-12T12:21:45;26.80;99.90
21037;DHT22;10677;50.942;4.028;2023-09-12T12:24:13;26.40;99.90
21037;DHT22;10677;50.942;4.028;2023-09-12T12:26:43;26.50;99.90
21037;DHT22;10677;50.942;4.028;2023-09-12T12:29:10;26.20;99.90
21037;DHT22;10677;50.942;4.028;2023-09-12T12:31:37;25.90;99.90
21037;DHT22;10677;50.942;4.028;2023-09-12T12:34:04;25.70;99.90
21037;DHT22;10677;50.942;4.028;2023-09-12T12:36:29;26.00;99.90
21037;DHT22;10677;50.942;4.028;2023-09-12T12:38:55;25.70;99.90
21037;DHT22;10677;50.942;4.028;2023-09-12T12:41:26;25.90;99.90
21037;DHT22;10677;50.942;4.028;2023-09-12T12:43:53;25.90;99.90
21037;DHT22;10677;50.942;4.028;2023-09-12T12:46:20;25.80;99.90
21037;DHT22;10677;50.942;4.028;2023-09-12T12:48:50;26.20;99.90
21037;DHT22;10677;50.942;4.028;2023-09-12T12:51:23;26.50;99.90
21037;DHT22;10677;50.942;4.028;2023-09-12T12:54:04;26.20;99.90
21037;DHT22;10677;50.942;4.028;2023-09-12T12:56:30;25.80;99.90
21037;DHT22;10677;50.942;4.028;2023-09-12T12:58:59;25.70;99.90
21037;DHT22;10677;50.942;4.028;2023-09-12T13:01:29;25.60;99.90
21037;DHT22;10677;50.942;4.028;2023-09-12T13:03:57;25.90;99.90
21037;DHT22;10677;50.942;4.028;2023-09-12T13:06:23;26.30;99.90
21037;DHT22;10677;50.942;4.028;2023-09-12T13:08:52;26.50;99.90
21037;DHT22;10677;50.942;4.028;2023-09-12T13:11:18;26.40;99.90
21037;DHT22;10677;50.942;4.028;2023-09-12T13:13:44;26.50;99.90
21037;DHT22;10677;50.942;4.028;2023-09-12T13:16:12;26.10;99.90
21037;DHT22;10677;50.942;4.028;2023-09-12T13:18:39;25.80;99.90
21037;DHT22;10677;50.942;4.028;2023-09-12T13:21:11;25.70;99.90
21037;DHT22;10677;50.942;4.028;2023-09-12T13:23:40;25.80;99.90
21037;DHT22;10677;50.942;4.028;2023-09-12T13:26:07;25.60;99.90
21037;DHT22;10677;50.942;4.028;2023-09-12T13:28:33;25.30;99.90
21037;DHT22;10677;50.942;4.028;2023-09-12T13:30:59;25.40;99.90
21037;DHT22;10677;50.942;4.028;2023-09-12T13:33:25;25.00;99.90
21037;DHT22;10677;50.942;4.028;2023-09-12T13:35:52;25.10;99.90
21037;DHT22;10677;50.942;4.028;2023-09-12T13:38:18;25.10;99.90
21037;DHT22;10677;50.942;4.028;2023-09-12T13:40:47;24.90;99.90
21037;DHT22;10677;50.942;4.028;2023-09-12T13:43:13;24.80;99.90
21037;DHT22;10677;50.942;4.028;2023-09-12T13:45:40;24.70;99.90
21037;DHT22;10677;50.942;4.028;2023-09-12T13:48:11;24.80;99.90
21037;DHT22;10677;50.942;4.028;2023-09-12T13:50:44;24.90;99.90
21037;DHT22;10677;50.942;4.028;2023-09-12T13:53:14;24.70;99.90
21037;DHT22;10677;50.942;4.028;2023-09-12T13:55:40;24.90;99.90
21037;DHT22;10677;50.942;4.028;2023-09-12T13:58:06;24.80;99.90
21037;DHT22;10677;50.942;4.028;2023-09-12T14:00:42;25.00;99.90
21037;DHT22;10677;50.942;4.028;2023-09-12T14:03:17;24.70;99.90
21037;DHT22;10677;50.942;4.028;2023-09-12T14:05:43;24.60;99.90
21037;DHT22;10677;50.942;4.028;2023-09-12T14:08:09;24.40;99.90
21037;DHT22;10677;50.942;4.028;2023-09-12T14:10:35;24.30;99.90
21037;DHT22;10677;50.942;4.028;2023-09-12T14:13:01;24.40;99.90
21037;DHT22;10677;50.942;4.028;2023-09-12T14:15:27;24.40;99.90
21037;DHT22;10677;50.942;4.028;2023-09-12T14:17:53;24.00;99.90
21037;DHT22;10677;50.942;4.028;2023-09-12T14:20:18;24.00;99.90
21037;DHT22;10677;50.942;4.028;2023-09-12T14:22:44;23.90;99.90
21037;DHT22;10677;50.942;4.028;2023-09-12T14:25:10;23.80;99.90
21037;DHT22;10677;50.942;4.028;2023-09-12T14:27:43;23.90;99.90
21037;DHT22;10677;50.942;4.028;2023-09-12T14:30:09;23.80;99.90
21037;DHT22;10677;50.942;4.028;2023-09-12T14:32:36;23.80;99.90
21037;DHT22;10677;50.942;4.028;2023-09-12T14:35:03;23.90;99.90
21037;DHT22;10677;50.942;4.028;2023-09-12T14:37:28;24.00;99.90
21037;DHT22;10677;50.942;4.028;2023-09-12T14:39:54;24.10;99.90
21037;DHT22;10677;50.942;4.028;2023-09-12T14:42:21;24.00;99.90
21037;DHT22;10677;50.942;4.028;2023-09-12T14:44:47;24.00;99.90
21037;DHT22;10677;50.942;4.028;2023-09-12T14:47:13;24.10;99.90
21037;DHT22;10677;50.942;4.028;2023-09-12T14:49:38;24.00;99.90
21037;DHT22;10677;50.942;4.028;2023-09-12T14:52:04;24.00;99.90
21037;DHT22;10677;50.942;4.028;2023-09-12T14:54:30;24.00;99.90
21037;DHT22;10677;50.942;4.028;2023-09-12T14:56:56;24.00;99.90
21037;DHT22;10677;50.942;4.028;2023-09-12T14:59:22;24.00;99.90
21037;DHT22;10677;50.942;4.028;2023-09-12T15:01:47;24.00;99.90
21037;DHT22;10677;50.942;4.028;2023-09-12T15:04:13;24.20;99.90
21037;DHT22;10677;50.942;4.028;2023-09-12T15:06:39;24.20;99.90
21037;DHT22;10677;50.942;4.028;2023-09-12T15:09:05;24.40;99.90
21037;DHT22;10677;50.942;4.028;2023-09-12T15:11:31;24.40;99.90
21037;DHT22;10677;50.942;4.028;2023-09-12T15:13:57;24.20;99.90
21037;DHT22;10677;50.942;4.028;2023-09-12T15:16:24;24.00;99.90
21037;DHT22;10677;50.942;4.028;2023-09-12T15:18:50;24.20;99.90
21037;DHT22;10677;50.942;4.028;2023-09-12T15:21:17;24.30;99.90
21037;DHT22;10677;50.942;4.028;2023-09-12T15:23:42;24.30;99.90
21037;DHT22;10677;50.942;4.028;2023-09-12T15:26:08;24.20;99.90
21037;DHT22;10677;50.942;4.028;2023-09-12T15:28:34;24.40;99.90
21037;DHT22;10677;50.942;4.028;2023-09-12T15:31:00;24.70;99.90
21037;DHT22;10677;50.942;4.028;2023-09-12T15:33:28;24.60;99.90
21037;DHT22;10677;50.942;4.028;2023-09-12T15:35:54;24.60;99.90
21037;DHT22;10677;50.942;4.028;2023-09-12T15:38:20;24.30;99.90
21037;DHT22;10677;50.942;4.028;2023-09-12T15:40:45;24.40;99.90
21037;DHT22;10677;50.942;4.028;2023-09-12T15:43:11;24.60;99.90
21037;DHT22;10677;50.942;4.028;2023-09-12T15:45:36;24.80;99.90
21037;DHT22;10677;50.942;4.028;2023-09-12T15:48:02;25.00;99.90
21037;DHT22;10677;50.942;4.028;2023-09-12T15:50:28;25.20;99.90
21037;DHT22;10677;50.942;4.028;2023-09-12T15:52:54;25.20;99.90